Time,TemperatureF,DewpointF,PressureIn,WindDirection,WindDirectionDegrees,WindSpeedMPH,WindSpeedGustMPH,Humidity,HourlyPrecipIn,Conditions,Clouds,dailyrainin,SoftwareType,DateUTC
2013-01-31 00:04:00,10.4,6.5,29.60,WNW,302,0.0,0.0,84,0.00,,,0.00,VWS V12.07,2013-01-31 06:04:00,
2013-01-31 00:09:00,10.3,6.7,29.60,NW,306,0.0,9.0,85,0.00,,,0.00,VWS V12.07,2013-01-31 06:09:00,
2013-01-31 00:14:00,10.2,6.3,29.61,SW,224,1.0,9.0,84,0.00,,,0.00,VWS V12.07,2013-01-31 06:14:00,
2013-01-31 00:19:00,10.1,6.5,29.61,WSW,237,0.0,9.0,85,0.00,,,0.00,VWS V12.07,2013-01-31 06:19:00,
2013-01-31 00:24:00,10.0,6.4,29.61,South,178,0.0,9.0,85,0.00,,,0.00,VWS V12.07,2013-01-31 06:24:00,
2013-01-31 00:29:00,9.9,6.3,29.61,WSW,253,0.0,9.0,85,0.00,,,0.00,VWS V12.07,2013-01-31 06:29:00,
2013-01-31 00:34:00,9.9,6.3,29.61,West,267,1.0,10.0,85,0.00,,,0.00,VWS V12.07,2013-01-31 06:34:00,
2013-01-31 00:44:00,9.9,6.3,29.62,NW,309,0.0,10.0,85,0.00,,,0.00,VWS V12.07,2013-01-31 06:44:00,
2013-01-31 00:49:00,9.9,6.3,29.62,West,259,0.0,10.0,85,0.00,,,0.00,VWS V12.07,2013-01-31 06:49:00,
2013-01-31 00:54:00,9.9,6.3,29.62,WNW,290,0.0,10.0,85,0.00,,,0.00,VWS V12.07,2013-01-31 06:54:00,
2013-01-31 00:59:00,9.9,6.3,29.62,West,261,0.0,10.0,85,0.00,,,0.00,VWS V12.07,2013-01-31 06:59:00,
2013-01-31 01:04:00,9.8,6.2,29.62,WNW,297,4.0,7.0,85,0.00,,,0.00,VWS V12.07,2013-01-31 07:04:00,
2013-01-31 01:09:00,9.7,6.1,29.63,WNW,300,0.0,7.0,85,0.00,,,0.00,VWS V12.07,2013-01-31 07:09:00,
2013-01-31 01:14:00,9.7,6.1,29.63,NNW,330,0.0,7.0,85,0.00,,,0.00,VWS V12.07,2013-01-31 07:14:00,
2013-01-31 01:19:00,9.6,6.0,29.63,West,263,2.0,7.0,85,0.00,,,0.00,VWS V12.07,2013-01-31 07:19:00,
2013-01-31 01:24:00,9.5,5.9,29.64,NNW,344,3.0,7.0,85,0.00,,,0.00,VWS V12.07,2013-01-31 07:24:00,
2013-01-31 01:29:00,9.5,5.7,29.64,ENE,67,0.0,7.0,84,0.00,,,0.00,VWS V12.07,2013-01-31 07:29:00,
2013-01-31 01:34:00,9.4,5.6,29.64,WSW,254,2.0,5.0,84,0.00,,,0.00,VWS V12.07,2013-01-31 07:34:00,
2013-01-31 01:39:00,9.4,5.6,29.64,NW,322,2.0,5.0,84,0.00,,,0.00,VWS V12.07,2013-01-31 07:39:00,
2013-01-31 01:44:00,9.3,5.7,29.65,NW,305,0.0,5.0,85,0.00,,,0.00,VWS V12.07,2013-01-31 07:44:00,
2013-01-31 01:49:00,9.4,5.8,29.65,West,275,0.0,5.0,85,0.00,,,0.00,VWS V12.07,2013-01-31 07:49:00,
2013-01-31 01:59:00,9.3,5.7,29.65,SSW,213,0.0,5.0,85,0.00,,,0.00,VWS V12.07,2013-01-31 07:59:00,
2013-01-31 02:04:00,9.2,5.4,29.65,West,275,1.0,3.0,84,0.00,,,0.00,VWS V12.07,2013-01-31 08:04:00,
2013-01-31 02:09:00,9.2,5.6,29.65,WNW,294,0.0,4.0,85,0.00,,,0.00,VWS V12.07,2013-01-31 08:09:00,
2013-01-31 02:14:00,9.1,5.5,29.66,West,277,4.0,5.0,85,0.00,,,0.00,VWS V12.07,2013-01-31 08:14:00,
2013-01-31 02:19:00,9.0,5.2,29.66,NW,324,0.0,5.0,84,0.00,,,0.00,VWS V12.07,2013-01-31 08:19:00,
2013-01-31 02:24:00,9.0,5.2,29.66,WSW,240,4.0,7.0,84,0.00,,,0.00,VWS V12.07,2013-01-31 08:24:00,
2013-01-31 02:29:00,8.9,5.3,29.66,WSW,244,1.0,9.0,85,0.00,,,0.00,VWS V12.07,2013-01-31 08:29:00,
2013-01-31 02:34:00,8.9,5.3,29.66,SW,234,0.0,1.0,85,0.00,,,0.00,VWS V12.07,2013-01-31 08:34:00,
2013-01-31 02:44:00,8.8,5.2,29.67,NW,318,1.0,4.0,85,0.00,,,0.00,VWS V12.07,2013-01-31 08:44:00,
2013-01-31 02:49:00,8.8,5.2,29.67,SW,232,2.0,7.0,85,0.00,,,0.00,VWS V12.07,2013-01-31 08:49:00,
2013-01-31 02:54:00,8.7,4.9,29.67,West,267,0.0,9.0,84,0.00,,,0.00,VWS V12.07,2013-01-31 08:54:00,
2013-01-31 02:59:00,8.6,4.8,29.67,WSW,243,1.0,9.0,84,0.00,,,0.00,VWS V12.07,2013-01-31 08:59:00,
2013-01-31 03:09:00,8.5,4.9,29.67,SW,236,1.0,3.0,85,0.00,,,0.00,VWS V12.07,2013-01-31 09:09:00,
2013-01-31 03:14:00,8.5,4.9,29.67,West,264,2.0,8.0,85,0.00,,,0.00,VWS V12.07,2013-01-31 09:14:00,
2013-01-31 03:19:00,8.4,4.8,29.67,SW,236,0.0,8.0,85,0.00,,,0.00,VWS V12.07,2013-01-31 09:19:00,
2013-01-31 03:24:00,8.3,4.7,29.67,West,268,0.0,8.0,85,0.00,,,0.00,VWS V12.07,2013-01-31 09:24:00,
2013-01-31 03:29:00,8.3,4.7,29.67,NNE,13,1.0,8.0,85,0.00,,,0.00,VWS V12.07,2013-01-31 09:29:00,
2013-01-31 03:34:00,8.2,4.6,29.67,West,261,8.0,8.0,85,0.00,,,0.00,VWS V12.07,2013-01-31 09:34:00,
2013-01-31 03:39:00,8.2,4.4,29.68,NW,304,1.0,9.0,84,0.00,,,0.00,VWS V12.07,2013-01-31 09:39:00,
2013-01-31 03:44:00,8.1,4.3,29.68,West,267,4.0,9.0,84,0.00,,,0.00,VWS V12.07,2013-01-31 09:44:00,
2013-01-31 03:54:00,8.1,4.5,29.68,West,263,1.0,9.0,85,0.00,,,0.00,VWS V12.07,2013-01-31 09:54:00,
2013-01-31 03:59:00,8.0,4.2,29.68,West,277,1.0,9.0,84,0.00,,,0.00,VWS V12.07,2013-01-31 09:59:00,
2013-01-31 04:04:00,8.0,4.2,29.68,WSW,253,1.0,7.0,84,0.00,,,0.00,VWS V12.07,2013-01-31 10:04:00,
2013-01-31 04:09:00,7.9,4.1,29.68,South,182,0.0,7.0,84,0.00,,,0.00,VWS V12.07,2013-01-31 10:09:00,
2013-01-31 04:14:00,7.9,4.3,29.69,SW,230,0.0,7.0,85,0.00,,,0.00,VWS V12.07,2013-01-31 10:14:00,
2013-01-31 04:19:00,7.9,4.1,29.69,WSW,252,0.0,8.0,84,0.00,,,0.00,VWS V12.07,2013-01-31 10:19:00,
2013-01-31 04:24:00,7.8,4.0,29.69,WSW,246,0.0,8.0,84,0.00,,,0.00,VWS V12.07,2013-01-31 10:24:00,
2013-01-31 04:29:00,7.8,4.0,29.69,WSW,242,3.0,8.0,84,0.00,,,0.00,VWS V12.07,2013-01-31 10:29:00,
2013-01-31 04:34:00,7.7,3.9,29.69,WSW,248,2.0,3.0,84,0.00,,,0.00,VWS V12.07,2013-01-31 10:34:00,
2013-01-31 04:39:00,7.7,3.9,29.70,WNW,289,4.0,4.0,84,0.00,,,0.00,VWS V12.07,2013-01-31 10:39:00,
2013-01-31 04:44:00,7.7,3.9,29.70,West,263,0.0,4.0,84,0.00,,,0.00,VWS V12.07,2013-01-31 10:44:00,
2013-01-31 04:49:00,7.6,3.5,29.70,West,267,3.0,14.0,83,0.00,,,0.00,VWS V12.07,2013-01-31 10:49:00,
2013-01-31 04:54:00,7.6,3.5,29.70,WSW,246,3.0,14.0,83,0.00,,,0.00,VWS V12.07,2013-01-31 10:54:00,
2013-01-31 04:59:00,7.5,3.4,29.70,SSE,148,0.0,14.0,83,0.00,,,0.00,VWS V12.07,2013-01-31 10:59:00,
2013-01-31 05:04:00,7.4,3.3,29.70,NW,315,0.0,8.0,83,0.00,,,0.00,VWS V12.07,2013-01-31 11:04:00,
2013-01-31 05:09:00,7.4,3.3,29.70,SW,214,0.0,8.0,83,0.00,,,0.00,VWS V12.07,2013-01-31 11:09:00,
2013-01-31 05:14:00,7.3,3.2,29.71,WNW,294,1.0,8.0,83,0.00,,,0.00,VWS V12.07,2013-01-31 11:14:00,
2013-01-31 05:19:00,7.3,3.2,29.71,NW,304,6.0,8.0,83,0.00,,,0.00,VWS V12.07,2013-01-31 11:19:00,
2013-01-31 05:24:00,7.2,3.1,29.71,WSW,252,2.0,10.0,83,0.00,,,0.00,VWS V12.07,2013-01-31 11:24:00,
2013-01-31 05:29:00,7.1,2.8,29.71,NNW,327,0.0,10.0,82,0.00,,,0.00,VWS V12.07,2013-01-31 11:29:00,
2013-01-31 05:34:00,7.1,3.0,29.71,WSW,253,1.0,4.0,83,0.00,,,0.00,VWS V12.07,2013-01-31 11:34:00,
2013-01-31 05:39:00,7.0,2.7,29.71,WSW,252,1.0,9.0,82,0.00,,,0.00,VWS V12.07,2013-01-31 11:39:00,
2013-01-31 05:49:00,6.8,2.5,29.72,WNW,302,0.0,9.0,82,0.00,,,0.00,VWS V12.07,2013-01-31 11:49:00,
2013-01-31 05:54:00,6.6,2.3,29.72,West,261,0.0,9.0,82,0.00,,,0.00,VWS V12.07,2013-01-31 11:54:00,
2013-01-31 05:59:00,6.5,2.2,29.72,NW,304,0.0,9.0,82,0.00,,,0.00,VWS V12.07,2013-01-31 11:59:00,
2013-01-31 06:04:00,6.4,2.1,29.72,NW,321,1.0,8.0,82,0.00,,,0.00,VWS V12.07,2013-01-31 12:04:00,
2013-01-31 06:09:00,6.3,2.0,29.72,SW,234,0.0,8.0,82,0.00,,,0.00,VWS V12.07,2013-01-31 12:09:00,
2013-01-31 06:14:00,6.2,1.9,29.72,WSW,253,2.0,9.0,82,0.00,,,0.00,VWS V12.07,2013-01-31 12:14:00,
2013-01-31 06:19:00,6.0,1.7,29.73,NNW,335,1.0,9.0,82,0.00,,,0.00,VWS V12.07,2013-01-31 12:19:00,
2013-01-31 06:24:00,5.9,1.6,29.73,NW,317,2.0,9.0,82,0.00,,,0.00,VWS V12.07,2013-01-31 12:24:00,
2013-01-31 06:29:00,5.7,1.4,29.73,WSW,244,3.0,9.0,82,0.00,,,0.00,VWS V12.07,2013-01-31 12:29:00,
2013-01-31 06:34:00,5.4,1.1,29.73,WSW,242,3.0,6.0,82,0.00,,,0.00,VWS V12.07,2013-01-31 12:34:00,
2013-01-31 06:39:00,5.0,0.7,29.74,WNW,298,1.0,6.0,82,0.00,,,0.00,VWS V12.07,2013-01-31 12:39:00,
2013-01-31 06:44:00,4.9,0.9,29.74,WSW,253,1.0,9.0,83,0.00,,,0.00,VWS V12.07,2013-01-31 12:44:00,
2013-01-31 06:49:00,4.7,0.7,29.74,West,273,0.0,9.0,83,0.00,,,0.00,VWS V12.07,2013-01-31 12:49:00,
2013-01-31 06:54:00,4.5,0.2,29.74,SW,233,2.0,9.0,82,0.00,,,0.00,VWS V12.07,2013-01-31 12:54:00,
2013-01-31 07:04:00,4.0,0.2,29.75,WSW,252,2.0,2.0,84,0.00,,,0.00,VWS V12.07,2013-01-31 13:04:00,
2013-01-31 07:09:00,3.7,-0.3,29.75,SW,227,0.0,3.0,83,0.00,,,0.00,VWS V12.07,2013-01-31 13:09:00,
2013-01-31 07:14:00,3.5,-0.5,29.75,WSW,245,0.0,5.0,83,0.00,,,0.00,VWS V12.07,2013-01-31 13:14:00,
2013-01-31 07:19:00,3.3,-0.4,29.75,SW,225,0.0,6.0,84,0.00,,,0.00,VWS V12.07,2013-01-31 13:19:00,
2013-01-31 07:24:00,3.3,-0.4,29.75,WSW,254,2.0,6.0,84,0.00,,,0.00,VWS V12.07,2013-01-31 13:24:00,
2013-01-31 07:29:00,3.2,-0.5,29.75,West,263,0.0,10.0,84,0.00,,,0.00,VWS V12.07,2013-01-31 13:29:00,
2013-01-31 07:34:00,2.9,-1.1,29.75,WSW,246,0.0,5.0,83,0.00,,,0.00,VWS V12.07,2013-01-31 13:34:00,
2013-01-31 07:39:00,2.8,-0.9,29.76,WSW,258,0.0,6.0,84,0.00,,,0.00,VWS V12.07,2013-01-31 13:39:00,
2013-01-31 07:44:00,2.6,-1.1,29.76,West,259,2.0,6.0,84,0.00,,,0.00,VWS V12.07,2013-01-31 13:44:00,
2013-01-31 07:49:00,2.4,-1.6,29.77,West,260,0.0,10.0,83,0.00,,,0.00,VWS V12.07,2013-01-31 13:49:00,
2013-01-31 07:59:00,1.9,-1.8,29.77,WNW,299,1.0,10.0,84,0.00,,,0.00,VWS V12.07,2013-01-31 13:59:00,
2013-01-31 08:04:00,1.8,-1.9,29.77,WSW,242,1.0,3.0,84,0.00,,,0.00,VWS V12.07,2013-01-31 14:04:00,
2013-01-31 08:09:00,1.8,-1.9,29.78,WSW,244,0.0,4.0,84,0.00,,,0.00,VWS V12.07,2013-01-31 14:09:00,
2013-01-31 08:14:00,1.9,-1.8,29.78,West,259,0.0,5.0,84,0.00,,,0.00,VWS V12.07,2013-01-31 14:14:00,
2013-01-31 08:19:00,1.9,-1.8,29.78,NW,310,0.0,7.0,84,0.00,,,0.00,VWS V12.07,2013-01-31 14:19:00,
2013-01-31 08:29:00,2.3,-1.2,29.78,SW,221,0.0,13.0,85,0.00,,,0.00,VWS V12.07,2013-01-31 14:29:00,
2013-01-31 08:34:00,2.6,-1.1,29.78,West,260,1.0,11.0,84,0.00,,,0.00,VWS V12.07,2013-01-31 14:34:00,
2013-01-31 08:39:00,2.8,-0.9,29.79,West,264,0.0,11.0,84,0.00,,,0.00,VWS V12.07,2013-01-31 14:39:00,
2013-01-31 08:49:00,3.0,-1.0,29.79,SW,234,0.0,11.0,83,0.00,,,0.00,VWS V12.07,2013-01-31 14:49:00,
2013-01-31 08:54:00,3.1,-0.9,29.80,West,269,0.0,11.0,83,0.00,,,0.00,VWS V12.07,2013-01-31 14:54:00,
2013-01-31 08:59:00,3.3,-0.7,29.80,WSW,237,3.0,11.0,83,0.00,,,0.00,VWS V12.07,2013-01-31 14:59:00,
2013-01-31 09:04:00,3.7,-0.3,29.80,West,259,2.0,7.0,83,0.00,,,0.00,VWS V12.07,2013-01-31 15:04:00,
2013-01-31 09:09:00,4.0,0.0,29.80,West,267,4.0,8.0,83,0.00,,,0.00,VWS V12.07,2013-01-31 15:09:00,
2013-01-31 09:14:00,4.2,-0.1,29.80,West,271,3.0,8.0,82,0.00,,,0.00,VWS V12.07,2013-01-31 15:14:00,
2013-01-31 09:19:00,4.5,0.2,29.81,NNW,331,2.0,8.0,82,0.00,,,0.00,VWS V12.07,2013-01-31 15:19:00,
2013-01-31 09:24:00,4.8,0.5,29.81,WNW,288,2.0,10.0,82,0.00,,,0.00,VWS V12.07,2013-01-31 15:24:00,
2013-01-31 09:29:00,5.1,0.6,29.81,WSW,237,0.0,10.0,81,0.00,,,0.00,VWS V12.07,2013-01-31 15:29:00,
2013-01-31 09:34:00,5.5,0.9,29.82,NW,315,2.0,8.0,81,0.00,,,0.00,VWS V12.07,2013-01-31 15:34:00,
2013-01-31 09:39:00,5.8,1.2,29.82,NW,326,1.0,8.0,81,0.00,,,0.00,VWS V12.07,2013-01-31 15:39:00,
2013-01-31 09:44:00,6.1,1.5,29.82,WSW,248,1.0,8.0,81,0.00,,,0.00,VWS V12.07,2013-01-31 15:44:00,
2013-01-31 09:49:00,6.3,1.5,29.82,West,261,2.0,9.0,80,0.00,,,0.00,VWS V12.07,2013-01-31 15:49:00,
2013-01-31 09:54:00,6.4,1.6,29.83,SW,230,0.0,9.0,80,0.00,,,0.00,VWS V12.07,2013-01-31 15:54:00,
2013-01-31 09:59:00,6.8,2.0,29.83,West,263,5.0,9.0,80,0.00,,,0.00,VWS V12.07,2013-01-31 15:59:00,
2013-01-31 10:04:00,7.1,2.2,29.83,WSW,241,0.0,9.0,80,0.00,,,0.00,VWS V12.07,2013-01-31 16:04:00,
2013-01-31 10:09:00,7.4,2.5,29.83,West,259,0.0,9.0,80,0.00,,,0.00,VWS V12.07,2013-01-31 16:09:00,
2013-01-31 10:14:00,7.8,2.9,29.84,NNW,330,1.0,9.0,80,0.00,,,0.00,VWS V12.07,2013-01-31 16:14:00,
2013-01-31 10:19:00,8.1,3.0,29.84,NNE,15,0.0,10.0,79,0.00,,,0.00,VWS V12.07,2013-01-31 16:19:00,
2013-01-31 10:24:00,8.3,3.1,29.84,SSE,150,0.0,10.0,79,0.00,,,0.00,VWS V12.07,2013-01-31 16:24:00,
2013-01-31 10:29:00,8.5,3.3,29.85,NW,319,0.0,10.0,79,0.00,,,0.00,VWS V12.07,2013-01-31 16:29:00,
2013-01-31 10:34:00,8.9,4.0,29.85,SW,236,2.0,2.0,80,0.00,,,0.00,VWS V12.07,2013-01-31 16:34:00,
2013-01-31 10:39:00,9.4,4.2,29.85,West,280,1.0,7.0,79,0.00,,,0.00,VWS V12.07,2013-01-31 16:39:00,
2013-01-31 10:44:00,9.9,4.7,29.85,NW,309,0.0,7.0,79,0.00,,,0.00,VWS V12.07,2013-01-31 16:44:00,
2013-01-31 10:49:00,10.5,5.0,29.85,SW,229,2.0,7.0,78,0.00,,,0.00,VWS V12.07,2013-01-31 16:49:00,
2013-01-31 10:54:00,10.7,4.9,29.85,NW,320,0.0,7.0,77,0.00,,,0.00,VWS V12.07,2013-01-31 16:54:00,
2013-01-31 10:59:00,10.8,5.0,29.85,NW,325,4.0,7.0,77,0.00,,,0.00,VWS V12.07,2013-01-31 16:59:00,
2013-01-31 11:04:00,10.2,4.2,29.85,West,265,7.0,12.0,76,0.00,,,0.00,VWS V12.07,2013-01-31 17:04:00,
2013-01-31 11:09:00,9.7,3.7,29.85,NW,321,0.0,12.0,76,0.00,,,0.00,VWS V12.07,2013-01-31 17:09:00,
2013-01-31 11:14:00,9.5,3.8,29.85,North,11,1.0,14.0,77,0.00,,,0.00,VWS V12.07,2013-01-31 17:14:00,
2013-01-31 11:19:00,9.6,3.8,29.86,WSW,257,1.0,14.0,77,0.00,,,0.00,VWS V12.07,2013-01-31 17:19:00,
2013-01-31 11:24:00,9.8,4.3,29.85,NNE,28,1.0,14.0,78,0.00,,,0.00,VWS V12.07,2013-01-31 17:24:00,
2013-01-31 11:29:00,10.2,5.0,29.85,SSW,203,7.0,14.0,79,0.00,,,0.00,VWS V12.07,2013-01-31 17:29:00,
2013-01-31 11:34:00,10.2,4.4,29.86,ESE,107,1.0,2.0,77,0.00,,,0.00,VWS V12.07,2013-01-31 17:34:00,
2013-01-31 11:39:00,10.2,4.2,29.86,SW,233,3.0,11.0,76,0.00,,,0.00,VWS V12.07,2013-01-31 17:39:00,
2013-01-31 11:49:00,10.0,3.7,29.86,WSW,249,1.0,12.0,75,0.00,,,0.00,VWS V12.07,2013-01-31 17:49:00,
2013-01-31 11:54:00,9.9,3.6,29.86,WNW,287,2.0,12.0,75,0.00,,,0.00,VWS V12.07,2013-01-31 17:54:00,
2013-01-31 11:59:00,9.9,3.9,29.86,WSW,254,1.0,12.0,76,0.00,,,0.00,VWS V12.07,2013-01-31 17:59:00,
2013-01-31 12:04:00,10.0,4.2,29.86,ESE,109,4.0,5.0,77,0.00,,,0.00,VWS V12.07,2013-01-31 18:04:00,
2013-01-31 12:09:00,10.4,4.9,29.86,WSW,248,0.0,7.0,78,0.00,,,0.00,VWS V12.07,2013-01-31 18:09:00,
2013-01-31 12:19:00,10.7,4.9,29.87,North,360,3.0,10.0,77,0.00,,,0.00,VWS V12.07,2013-01-31 18:19:00,
2013-01-31 12:24:00,10.7,4.9,29.87,NNW,333,3.0,10.0,77,0.00,,,0.00,VWS V12.07,2013-01-31 18:24:00,
2013-01-31 12:29:00,10.8,4.7,29.87,SW,229,1.0,10.0,76,0.00,,,0.00,VWS V12.07,2013-01-31 18:29:00,
2013-01-31 12:34:00,11.1,5.3,29.87,SW,223,1.0,6.0,77,0.00,,,0.00,VWS V12.07,2013-01-31 18:34:00,
2013-01-31 12:39:00,11.3,5.2,29.87,WNW,282,2.0,7.0,76,0.00,,,0.00,VWS V12.07,2013-01-31 18:39:00,
2013-01-31 12:44:00,11.0,4.3,29.88,SW,225,3.0,8.0,74,0.00,,,0.00,VWS V12.07,2013-01-31 18:44:00,
2013-01-31 12:49:00,10.8,4.2,29.88,SW,235,2.0,8.0,74,0.00,,,0.00,VWS V12.07,2013-01-31 18:49:00,
2013-01-31 12:54:00,10.7,3.8,29.88,West,279,1.0,9.0,73,0.00,,,0.00,VWS V12.07,2013-01-31 18:54:00,
2013-01-31 12:59:00,10.7,4.1,29.88,WSW,253,4.0,9.0,74,0.00,,,0.00,VWS V12.07,2013-01-31 18:59:00,
2013-01-31 13:04:00,10.6,4.0,29.88,ENE,60,2.0,9.0,74,0.00,,,0.00,VWS V12.07,2013-01-31 19:04:00,
2013-01-31 13:09:00,10.5,3.9,29.88,NNW,333,0.0,10.0,74,0.00,,,0.00,VWS V12.07,2013-01-31 19:09:00,
2013-01-31 13:14:00,10.6,4.5,29.88,SSW,192,0.0,11.0,76,0.00,,,0.00,VWS V12.07,2013-01-31 19:14:00,
2013-01-31 13:19:00,10.6,4.2,29.88,NNW,329,1.0,11.0,75,0.00,,,0.00,VWS V12.07,2013-01-31 19:19:00,
2013-01-31 13:24:00,10.6,4.2,29.89,NNW,331,1.0,11.0,75,0.00,,,0.00,VWS V12.07,2013-01-31 19:24:00,
2013-01-31 13:29:00,10.5,3.9,29.89,West,266,0.0,11.0,74,0.00,,,0.00,VWS V12.07,2013-01-31 19:29:00,
2013-01-31 13:34:00,10.5,3.6,29.89,NNW,329,0.0,8.0,73,0.00,,,0.00,VWS V12.07,2013-01-31 19:34:00,
2013-01-31 13:39:00,10.6,4.0,29.90,South,182,1.0,10.0,74,0.00,,,0.00,VWS V12.07,2013-01-31 19:39:00,
2013-01-31 13:44:00,10.3,2.8,29.90,NW,308,1.0,14.0,71,0.00,,,0.00,VWS V12.07,2013-01-31 19:44:00,
2013-01-31 13:49:00,10.2,2.7,29.90,WNW,289,0.0,14.0,71,0.00,,,0.00,VWS V12.07,2013-01-31 19:49:00,
2013-01-31 13:59:00,10.2,3.3,29.91,NNW,336,2.0,14.0,73,0.00,,,0.00,VWS V12.07,2013-01-31 19:59:00,
2013-01-31 14:04:00,10.1,2.9,29.91,WNW,292,1.0,3.0,72,0.00,,,0.00,VWS V12.07,2013-01-31 20:04:00,
2013-01-31 14:09:00,10.0,2.8,29.91,North,360,1.0,5.0,72,0.00,,,0.00,VWS V12.07,2013-01-31 20:09:00,
2013-01-31 14:14:00,9.9,2.7,29.91,West,269,2.0,5.0,72,0.00,,,0.00,VWS V12.07,2013-01-31 20:14:00,
2013-01-31 14:19:00,9.6,2.7,29.92,NNE,19,0.0,6.0,73,0.00,,,0.00,VWS V12.07,2013-01-31 20:19:00,
2013-01-31 14:24:00,9.5,2.6,29.92,NE,42,0.0,6.0,73,0.00,,,0.00,VWS V12.07,2013-01-31 20:24:00,
2013-01-31 14:29:00,9.5,2.6,29.92,WNW,295,0.0,9.0,73,0.00,,,0.00,VWS V12.07,2013-01-31 20:29:00,
2013-01-31 14:34:00,9.5,2.6,29.92,WSW,241,2.0,3.0,73,0.00,,,0.00,VWS V12.07,2013-01-31 20:34:00,
2013-01-31 14:39:00,9.4,2.2,29.93,SW,222,1.0,9.0,72,0.00,,,0.00,VWS V12.07,2013-01-31 20:39:00,
2013-01-31 14:44:00,9.3,2.4,29.93,SW,229,10.0,10.0,73,0.00,,,0.00,VWS V12.07,2013-01-31 20:44:00,
2013-01-31 14:49:00,9.3,2.4,29.93,East,101,2.0,10.0,73,0.00,,,0.00,VWS V12.07,2013-01-31 20:49:00,
2013-01-31 14:54:00,9.5,2.3,29.93,WSW,248,0.0,12.0,72,0.00,,,0.00,VWS V12.07,2013-01-31 20:54:00,
2013-01-31 14:59:00,9.5,2.3,29.94,ESE,106,1.0,12.0,72,0.00,,,0.00,VWS V12.07,2013-01-31 20:59:00,
2013-01-31 15:04:00,9.4,2.2,29.94,NNW,336,0.0,11.0,72,0.00,,,0.00,VWS V12.07,2013-01-31 21:04:00,
2013-01-31 15:09:00,9.1,1.6,29.95,West,262,0.0,11.0,71,0.00,,,0.00,VWS V12.07,2013-01-31 21:09:00,
2013-01-31 15:14:00,8.7,1.5,29.95,NW,321,0.0,11.0,72,0.00,,,0.00,VWS V12.07,2013-01-31 21:14:00,
2013-01-31 15:19:00,8.4,1.5,29.95,WSW,251,1.0,11.0,73,0.00,,,0.00,VWS V12.07,2013-01-31 21:19:00,
2013-01-31 15:24:00,8.3,2.0,29.95,SSW,211,1.0,11.0,75,0.00,,,0.00,VWS V12.07,2013-01-31 21:24:00,
2013-01-31 15:29:00,8.4,2.1,29.96,West,268,0.0,11.0,75,0.00,,,0.00,VWS V12.07,2013-01-31 21:29:00,
2013-01-31 15:34:00,8.5,2.5,29.96,West,280,0.0,6.0,76,0.00,,,0.00,VWS V12.07,2013-01-31 21:34:00,
2013-01-31 15:39:00,8.5,2.2,29.96,ENE,61,0.0,6.0,75,0.00,,,0.00,VWS V12.07,2013-01-31 21:39:00,
2013-01-31 15:44:00,8.4,2.7,29.97,SE,146,0.0,6.0,77,0.00,,,0.00,VWS V12.07,2013-01-31 21:44:00,
2013-01-31 15:49:00,8.2,1.9,29.97,North,360,3.0,7.0,75,0.00,,,0.00,VWS V12.07,2013-01-31 21:49:00,
2013-01-31 15:54:00,8.0,1.5,29.97,SW,227,0.0,8.0,74,0.00,,,0.00,VWS V12.07,2013-01-31 21:54:00,
2013-01-31 16:04:00,7.7,1.4,29.98,WNW,288,2.0,3.0,75,0.00,,,0.00,VWS V12.07,2013-01-31 22:04:00,
2013-01-31 16:09:00,7.7,2.0,29.98,WSW,245,0.0,3.0,77,0.00,,,0.00,VWS V12.07,2013-01-31 22:09:00,
2013-01-31 16:19:00,7.3,1.3,29.99,ENE,63,0.0,4.0,76,0.00,,,0.00,VWS V12.07,2013-01-31 22:19:00,
2013-01-31 16:24:00,7.0,1.0,29.99,SW,225,0.0,4.0,76,0.00,,,0.00,VWS V12.07,2013-01-31 22:24:00,
2013-01-31 16:29:00,6.8,1.4,29.99,SSW,205,1.0,4.0,78,0.00,,,0.00,VWS V12.07,2013-01-31 22:29:00,
2013-01-31 16:34:00,6.7,1.3,30.00,West,281,0.0,1.0,78,0.00,,,0.00,VWS V12.07,2013-01-31 22:34:00,
2013-01-31 16:39:00,6.5,1.4,30.00,NE,54,1.0,4.0,79,0.00,,,0.00,VWS V12.07,2013-01-31 22:39:00,
2013-01-31 16:44:00,6.4,1.0,30.00,West,260,1.0,8.0,78,0.00,,,0.00,VWS V12.07,2013-01-31 22:44:00,
2013-01-31 16:49:00,6.3,0.9,30.00,West,264,2.0,8.0,78,0.00,,,0.00,VWS V12.07,2013-01-31 22:49:00,
2013-01-31 16:54:00,6.1,1.0,30.01,WSW,253,0.0,8.0,79,0.00,,,0.00,VWS V12.07,2013-01-31 22:54:00,
2013-01-31 17:04:00,5.9,1.1,30.01,NW,323,2.0,2.0,80,0.00,,,0.00,VWS V12.07,2013-01-31 23:04:00,
2013-01-31 17:09:00,5.9,1.1,30.01,WSW,248,0.0,4.0,80,0.00,,,0.00,VWS V12.07,2013-01-31 23:09:00,
2013-01-31 17:14:00,5.8,1.0,30.01,WSW,246,0.0,5.0,80,0.00,,,0.00,VWS V12.07,2013-01-31 23:14:00,
2013-01-31 17:19:00,5.7,0.6,30.02,NW,317,0.0,5.0,79,0.00,,,0.00,VWS V12.07,2013-01-31 23:19:00,
2013-01-31 17:24:00,5.6,0.5,30.02,WNW,287,1.0,5.0,79,0.00,,,0.00,VWS V12.07,2013-01-31 23:24:00,
2013-01-31 17:29:00,5.5,0.4,30.03,North,5,0.0,5.0,79,0.00,,,0.00,VWS V12.07,2013-01-31 23:29:00,
2013-01-31 17:34:00,5.4,0.3,30.03,WNW,294,4.0,4.0,79,0.00,,,0.00,VWS V12.07,2013-01-31 23:34:00,
2013-01-31 17:39:00,5.2,-0.2,30.03,WSW,251,4.0,6.0,78,0.00,,,0.00,VWS V12.07,2013-01-31 23:39:00,
2013-01-31 17:44:00,5.1,-0.2,30.03,NW,321,1.0,6.0,78,0.00,,,0.00,VWS V12.07,2013-01-31 23:44:00,
2013-01-31 17:49:00,5.0,-0.3,30.04,NW,314,0.0,6.0,78,0.00,,,0.00,VWS V12.07,2013-01-31 23:49:00,
2013-01-31 17:54:00,4.9,-0.4,30.04,West,271,1.0,6.0,78,0.00,,,0.00,VWS V12.07,2013-01-31 23:54:00,
2013-01-31 17:59:00,4.8,-0.5,30.04,WSW,248,0.0,7.0,78,0.00,,,0.00,VWS V12.07,2013-01-31 23:59:00,
2013-01-31 18:09:00,4.7,-0.6,30.05,NW,308,1.0,8.0,78,0.00,,,0.00,VWS V12.07,2013-02-01 00:09:00,
2013-01-31 18:14:00,4.6,-0.7,30.05,WNW,296,1.0,8.0,78,0.00,,,0.00,VWS V12.07,2013-02-01 00:14:00,
2013-01-31 18:19:00,4.4,-0.9,30.05,NW,306,0.0,8.0,78,0.00,,,0.00,VWS V12.07,2013-02-01 00:19:00,
2013-01-31 18:24:00,4.3,-1.0,30.05,WSW,254,1.0,8.0,78,0.00,,,0.00,VWS V12.07,2013-02-01 00:24:00,
2013-01-31 18:29:00,4.2,-1.1,30.05,West,265,0.0,8.0,78,0.00,,,0.00,VWS V12.07,2013-02-01 00:29:00,
2013-01-31 18:34:00,4.1,-1.2,30.06,WSW,248,0.0,4.0,78,0.00,,,0.00,VWS V12.07,2013-02-01 00:34:00,
2013-01-31 18:39:00,4.0,-1.3,30.06,SW,231,1.0,4.0,78,0.00,,,0.00,VWS V12.07,2013-02-01 00:39:00,
2013-01-31 18:44:00,3.7,-1.6,30.06,SW,229,0.0,4.0,78,0.00,,,0.00,VWS V12.07,2013-02-01 00:44:00,
2013-01-31 18:49:00,3.5,-1.5,30.06,WSW,242,0.0,5.0,79,0.00,,,0.00,VWS V12.07,2013-02-01 00:49:00,
2013-01-31 18:59:00,3.3,-1.7,30.07,West,268,0.0,8.0,79,0.00,,,0.00,VWS V12.07,2013-02-01 00:59:00,
2013-01-31 19:04:00,3.3,-1.7,30.07,WSW,246,1.0,9.0,79,0.00,,,0.00,VWS V12.07,2013-02-01 01:04:00,
2013-01-31 19:09:00,3.3,-1.5,30.07,West,279,1.0,9.0,80,0.00,,,0.00,VWS V12.07,2013-02-01 01:09:00,
2013-01-31 19:14:00,3.3,-1.5,30.07,WNW,283,0.0,9.0,80,0.00,,,0.00,VWS V12.07,2013-02-01 01:14:00,
2013-01-31 19:19:00,3.3,-1.5,30.08,NW,306,3.0,9.0,80,0.00,,,0.00,VWS V12.07,2013-02-01 01:19:00,
2013-01-31 19:29:00,3.3,-1.2,30.08,WSW,240,6.0,9.0,81,0.00,,,0.00,VWS V12.07,2013-02-01 01:29:00,
2013-01-31 19:34:00,3.2,-1.3,30.08,WNW,302,0.0,9.0,81,0.00,,,0.00,VWS V12.07,2013-02-01 01:34:00,
2013-01-31 19:39:00,3.2,-1.3,30.08,WSW,242,1.0,9.0,81,0.00,,,0.00,VWS V12.07,2013-02-01 01:39:00,
2013-01-31 19:44:00,3.2,-1.3,30.08,WNW,285,2.0,9.0,81,0.00,,,0.00,VWS V12.07,2013-02-01 01:44:00,
2013-01-31 19:49:00,3.1,-1.7,30.08,North,11,0.0,9.0,80,0.00,,,0.00,VWS V12.07,2013-02-01 01:49:00,
2013-01-31 19:54:00,3.0,-1.8,30.09,South,185,0.0,11.0,80,0.00,,,0.00,VWS V12.07,2013-02-01 01:54:00,
2013-01-31 19:59:00,2.9,-1.9,30.09,SW,232,3.0,11.0,80,0.00,,,0.00,VWS V12.07,2013-02-01 01:59:00,
2013-01-31 20:09:00,2.8,-2.0,30.09,WNW,298,0.0,9.0,80,0.00,,,0.00,VWS V12.07,2013-02-01 02:09:00,
2013-01-31 20:14:00,2.7,-2.0,30.10,West,281,0.0,9.0,80,0.00,,,0.00,VWS V12.07,2013-02-01 02:14:00,
2013-01-31 20:19:00,2.6,-2.2,30.10,WSW,244,1.0,9.0,80,0.00,,,0.00,VWS V12.07,2013-02-01 02:19:00,
2013-01-31 20:24:00,2.4,-2.3,30.10,West,260,5.0,11.0,80,0.00,,,0.00,VWS V12.07,2013-02-01 02:24:00,
2013-01-31 20:29:00,2.5,-2.2,30.10,West,267,2.0,11.0,80,0.00,,,0.00,VWS V12.07,2013-02-01 02:29:00,
2013-01-31 20:34:00,2.3,-2.4,30.10,West,259,0.0,2.0,80,0.00,,,0.00,VWS V12.07,2013-02-01 02:34:00,
2013-01-31 20:39:00,2.0,-2.7,30.10,WSW,256,1.0,3.0,80,0.00,,,0.00,VWS V12.07,2013-02-01 02:39:00,
2013-01-31 20:44:00,1.8,-2.9,30.11,WSW,254,2.0,4.0,80,0.00,,,0.00,VWS V12.07,2013-02-01 02:44:00,
2013-01-31 20:49:00,1.7,-2.8,30.11,West,263,3.0,8.0,81,0.00,,,0.00,VWS V12.07,2013-02-01 02:49:00,
2013-01-31 20:59:00,1.2,-3.5,30.11,WSW,243,0.0,8.0,80,0.00,,,0.00,VWS V12.07,2013-02-01 02:59:00,
2013-01-31 21:04:00,1.1,-3.4,30.11,WNW,303,0.0,2.0,81,0.00,,,0.00,VWS V12.07,2013-02-01 03:04:00,
2013-01-31 21:09:00,1.0,-3.5,30.12,WNW,303,1.0,7.0,81,0.00,,,0.00,VWS V12.07,2013-02-01 03:09:00,
2013-01-31 21:14:00,0.9,-3.5,30.12,WSW,257,0.0,7.0,81,0.00,,,0.00,VWS V12.07,2013-02-01 03:14:00,
2013-01-31 21:19:00,0.7,-3.8,30.12,WSW,244,1.0,7.0,81,0.00,,,0.00,VWS V12.07,2013-02-01 03:19:00,
2013-01-31 21:24:00,0.5,-3.9,30.12,West,261,3.0,7.0,81,0.00,,,0.00,VWS V12.07,2013-02-01 03:24:00,
2013-01-31 21:29:00,0.2,-4.5,30.12,West,259,0.0,7.0,80,0.00,,,0.00,VWS V12.07,2013-02-01 03:29:00,
2013-01-31 21:34:00,0.1,-4.3,30.13,West,260,1.0,7.0,81,0.00,,,0.00,VWS V12.07,2013-02-01 03:34:00,
2013-01-31 21:39:00,0.2,-4.2,30.13,SW,226,0.0,7.0,81,0.00,,,0.00,VWS V12.07,2013-02-01 03:39:00,
2013-01-31 21:44:00,0.4,-3.8,30.13,West,265,0.0,7.0,82,0.00,,,0.00,VWS V12.07,2013-02-01 03:44:00,
2013-01-31 21:49:00,0.4,-4.0,30.13,WSW,257,1.0,7.0,81,0.00,,,0.00,VWS V12.07,2013-02-01 03:49:00,
2013-01-31 21:54:00,0.5,-3.7,30.13,West,263,3.0,7.0,82,0.00,,,0.00,VWS V12.07,2013-02-01 03:54:00,
2013-01-31 21:59:00,0.6,-3.8,30.13,WSW,256,2.0,7.0,81,0.00,,,0.00,VWS V12.07,2013-02-01 03:59:00,
2013-01-31 22:04:00,0.6,-3.8,30.14,West,259,0.0,6.0,81,0.00,,,0.00,VWS V12.07,2013-02-01 04:04:00,
2013-01-31 22:14:00,0.6,-3.8,30.14,WSW,249,0.0,7.0,81,0.00,,,0.00,VWS V12.07,2013-02-01 04:14:00,
2013-01-31 22:19:00,0.6,-3.8,30.14,West,271,1.0,7.0,81,0.00,,,0.00,VWS V12.07,2013-02-01 04:19:00,
2013-01-31 22:24:00,0.8,-3.7,30.14,SW,230,0.0,8.0,81,0.00,,,0.00,VWS V12.07,2013-02-01 04:24:00,
2013-01-31 22:29:00,0.9,-3.5,30.14,SW,236,1.0,8.0,81,0.00,,,0.00,VWS V12.07,2013-02-01 04:29:00,
2013-01-31 22:34:00,1.0,-3.5,30.14,West,278,1.0,3.0,81,0.00,,,0.00,VWS V12.07,2013-02-01 04:34:00,
2013-01-31 22:39:00,1.0,-3.5,30.15,West,265,0.0,6.0,81,0.00,,,0.00,VWS V12.07,2013-02-01 04:39:00,
2013-01-31 22:44:00,1.1,-3.4,30.15,SW,232,0.0,6.0,81,0.00,,,0.00,VWS V12.07,2013-02-01 04:44:00,
2013-01-31 22:49:00,1.3,-3.2,30.15,WSW,242,0.0,6.0,81,0.00,,,0.00,VWS V12.07,2013-02-01 04:49:00,
2013-01-31 22:54:00,1.3,-3.2,30.14,SW,227,2.0,9.0,81,0.00,,,0.00,VWS V12.07,2013-02-01 04:54:00,
2013-01-31 22:59:00,1.2,-3.5,30.14,WSW,252,2.0,9.0,80,0.00,,,0.00,VWS V12.07,2013-02-01 04:59:00,
2013-01-31 23:04:00,1.0,-3.7,30.15,WSW,246,3.0,6.0,80,0.00,,,0.00,VWS V12.07,2013-02-01 05:04:00,
2013-01-31 23:14:00,0.6,-3.8,30.15,West,271,1.0,6.0,81,0.00,,,0.00,VWS V12.07,2013-02-01 05:14:00,
2013-01-31 23:19:00,0.6,-3.8,30.15,SW,223,2.0,7.0,81,0.00,,,0.00,VWS V12.07,2013-02-01 05:19:00,
2013-01-31 23:24:00,0.6,-3.8,30.15,NNW,337,2.0,7.0,81,0.00,,,0.00,VWS V12.07,2013-02-01 05:24:00,
2013-01-31 23:29:00,0.5,-4.2,30.16,SW,220,0.0,7.0,80,0.00,,,0.00,VWS V12.07,2013-02-01 05:29:00,
2013-01-31 23:34:00,0.3,-4.4,30.16,SW,222,0.0,2.0,80,0.00,,,0.00,VWS V12.07,2013-02-01 05:34:00,
2013-01-31 23:39:00,0.1,-4.6,30.16,West,273,0.0,3.0,80,0.00,,,0.00,VWS V12.07,2013-02-01 05:39:00,
2013-01-31 23:44:00,-0.2,-4.9,30.16,West,277,0.0,3.0,80,0.00,,,0.00,VWS V12.07,2013-02-01 05:44:00,
2013-01-31 23:49:00,-0.5,-5.2,30.16,WSW,244,0.0,4.0,80,0.00,,,0.00,VWS V12.07,2013-02-01 05:49:00,
2013-01-31 23:54:00,-0.7,-5.4,30.16,WSW,249,0.0,4.0,80,0.00,,,0.00,VWS V12.07,2013-02-01 05:54:00,
2013-01-31 23:59:00,-0.9,-5.3,30.16,West,261,0.0,4.0,81,0.00,,,0.00,VWS V12.07,2013-02-01 05:59:00,